Wrightstown, Wisconsin
Current Conditions -  °F | °C
As of 6:10 AM on Friday 24 Oct 2014 (Local Time) from KGRB Reporting Station
Haze Haze  
Wind Chill:   Ceiling: 500
Heat Index:   Visibility: 3mi
Dew Point:   Wind: 3mph
Humidity: 96%   Direction: 230°SW
Pressure: 30.02"   Gusts: NA
Location:  44.33°N, 88.16°W
Report Text: KGRB 241110Z 23003KT 3SM BR BKN005 OVC010 09/08 A3002 RMK AO2 T00890083
Loading
Personal Weather Stations






























Interactive Weather Map
Tropical Storm Tracking
New forecast layout! Learn more

10-Day Weather Forecast

Advertisements
Track Severe Weather on mobile